createdAt,value
2018-11-23T00:00:22.951Z,33.10
2018-11-23T00:02:51.859Z,34.70
2018-11-23T00:05:20.619Z,32.17
2018-11-23T00:07:49.434Z,33.70
2018-11-23T00:10:19.123Z,33.00
2018-11-23T00:12:47.730Z,35.47
2018-11-23T00:15:17.315Z,37.27
2018-11-23T00:17:45.709Z,33.87
2018-11-23T00:20:17.559Z,33.63
2018-11-23T00:22:45.964Z,32.17
2018-11-23T00:25:16.618Z,33.57
2018-11-23T00:27:45.074Z,31.90
2018-11-23T00:30:15.571Z,30.73
2018-11-23T00:32:44.366Z,34.00
2018-11-23T00:35:14.596Z,30.33
2018-11-23T00:37:43.174Z,30.40
2018-11-23T00:40:13.866Z,32.53
2018-11-23T00:42:42.902Z,32.00
2018-11-23T00:45:12.737Z,31.80
2018-11-23T00:47:41.610Z,29.07
2018-11-23T00:50:13.705Z,29.30
2018-11-23T00:52:42.671Z,31.80
2018-11-23T00:55:12.815Z,32.30
2018-11-23T00:57:41.302Z,34.90
2018-11-23T01:00:13.878Z,31.90
2018-11-23T01:02:42.639Z,29.47
2018-11-23T01:05:12.267Z,29.60
2018-11-23T01:07:41.247Z,31.23
2018-11-23T01:10:11.590Z,29.10
2018-11-23T01:12:39.974Z,31.57
2018-11-23T01:15:08.963Z,30.30
2018-11-23T01:17:37.332Z,31.43
2018-11-23T01:20:07.393Z,30.47
2018-11-23T01:22:35.759Z,32.07
2018-11-23T01:25:04.358Z,33.67
2018-11-23T01:27:32.727Z,34.10
2018-11-23T01:30:01.119Z,31.70
2018-11-23T01:32:29.486Z,33.67
2018-11-23T01:34:58.058Z,30.47
2018-11-23T01:37:26.433Z,35.57
2018-11-23T01:39:54.818Z,31.90
2018-11-23T01:42:23.186Z,32.10
2018-11-23T01:44:52.183Z,34.10
2018-11-23T01:47:22.291Z,33.93
2018-11-23T01:49:50.709Z,35.37
2018-11-23T01:52:19.074Z,34.97
2018-11-23T01:54:47.471Z,34.73
2018-11-23T01:57:15.840Z,32.40
2018-11-23T01:59:44.251Z,33.80
2018-11-23T02:02:12.610Z,35.30
2018-11-23T02:04:40.965Z,36.67
2018-11-23T02:07:09.343Z,35.90
2018-11-23T02:09:37.707Z,39.63
2018-11-23T02:12:06.094Z,39.40
2018-11-23T02:14:34.451Z,39.33
2018-11-23T02:17:02.833Z,37.57
2018-11-23T02:19:31.311Z,38.90
2018-11-23T02:21:59.755Z,36.90
2018-11-23T02:24:28.119Z,36.77
2018-11-23T02:26:56.519Z,40.83
2018-11-23T02:29:24.892Z,35.80
2018-11-23T02:31:53.278Z,38.20
2018-11-23T02:34:21.642Z,41.60
2018-11-23T02:36:50.047Z,41.07
2018-11-23T02:39:18.419Z,37.37
2018-11-23T02:41:46.820Z,38.57
2018-11-23T02:44:15.187Z,41.10
2018-11-23T02:46:43.573Z,41.53
2018-11-23T02:49:11.943Z,38.10
2018-11-23T02:51:40.326Z,42.07
2018-11-23T02:54:08.689Z,38.00
2018-11-23T02:56:42.467Z,37.63
2018-11-23T02:59:10.831Z,37.57
2018-11-23T03:01:39.636Z,42.17
2018-11-23T03:04:08.806Z,42.30
2018-11-23T03:06:37.199Z,40.13
2018-11-23T03:09:08.335Z,37.40
2018-11-23T03:11:38.171Z,41.90
2018-11-23T03:14:06.679Z,42.63
2018-11-23T03:16:35.394Z,39.30
2018-11-23T03:19:03.770Z,42.03
2018-11-23T03:21:32.179Z,39.37
2018-11-23T03:24:00.547Z,39.20
2018-11-23T03:26:28.926Z,42.97
2018-11-23T03:28:57.281Z,37.93
2018-11-23T03:31:26.447Z,40.97
2018-11-23T03:33:55.146Z,38.50
2018-11-23T03:36:24.328Z,41.77
2018-11-23T03:38:53.089Z,40.90
2018-11-23T03:41:21.474Z,35.33
2018-11-23T03:43:49.956Z,38.50
2018-11-23T03:46:18.371Z,39.13
2018-11-23T03:48:46.746Z,35.70
2018-11-23T03:51:15.131Z,39.37
2018-11-23T03:53:43.515Z,41.23
2018-11-23T03:56:12.054Z,40.40
2018-11-23T03:58:40.450Z,38.20
2018-11-23T04:01:08.809Z,38.40
2018-11-23T04:03:37.222Z,37.83
2018-11-23T04:06:05.822Z,37.10
2018-11-23T04:08:34.215Z,36.60
2018-11-23T04:11:02.579Z,34.90
2018-11-23T04:13:30.978Z,37.17
2018-11-23T04:15:59.346Z,37.37
2018-11-23T04:18:27.738Z,36.00
2018-11-23T04:21:00.141Z,39.67
2018-11-23T04:23:28.966Z,37.20
2018-11-23T04:25:57.346Z,38.47
2018-11-23T04:28:25.785Z,37.70
2018-11-23T04:30:54.392Z,38.57
2018-11-23T04:33:23.098Z,37.80
2018-11-23T04:35:51.559Z,38.50
2018-11-23T04:38:19.964Z,38.03
2018-11-23T04:40:48.330Z,36.70
2018-11-23T04:43:16.759Z,36.60
2018-11-23T04:45:45.121Z,38.97
2018-11-23T04:48:13.498Z,36.30
2018-11-23T04:50:41.929Z,37.20
2018-11-23T04:53:10.323Z,35.60
2018-11-23T04:55:38.689Z,37.47
2018-11-23T04:58:07.059Z,37.03
2018-11-23T05:00:35.447Z,37.67
2018-11-23T05:03:03.815Z,37.80
2018-11-23T05:05:32.203Z,36.57
2018-11-23T05:08:00.578Z,38.40
2018-11-23T05:10:28.966Z,35.80
2018-11-23T05:12:57.330Z,37.73
2018-11-23T05:15:25.736Z,35.40
2018-11-23T05:17:54.107Z,35.60
2018-11-23T05:20:22.520Z,34.77
2018-11-23T05:22:50.886Z,33.23
2018-11-23T05:25:20.090Z,34.93
2018-11-23T05:27:48.482Z,43.70
2018-11-23T05:30:18.730Z,47.90
2018-11-23T05:32:47.110Z,39.70
2018-11-23T05:35:16.403Z,35.93
2018-11-23T05:37:44.773Z,37.60
2018-11-23T05:40:15.295Z,35.97
2018-11-23T05:42:43.675Z,34.33
2018-11-23T05:45:14.858Z,39.17
2018-11-23T05:47:43.361Z,34.00
2018-11-23T05:50:27.301Z,36.13
2018-11-23T05:52:55.661Z,36.57
2018-11-23T05:55:24.054Z,35.50
2018-11-23T05:57:52.605Z,36.33
2018-11-23T06:00:23.521Z,36.47
2018-11-23T06:02:51.891Z,37.00
2018-11-23T06:05:20.286Z,34.33
2018-11-23T06:07:48.669Z,33.30
2018-11-23T06:10:18.463Z,28.40
2018-11-23T06:12:46.922Z,42.90
2018-11-23T06:15:17.687Z,32.33
2018-11-23T06:17:46.581Z,33.33
2018-11-23T06:20:17.121Z,31.87
2018-11-23T06:22:46.714Z,36.10
2018-11-23T06:26:19.753Z,32.37
2018-11-23T06:28:48.113Z,30.37
2018-11-23T06:31:16.521Z,34.30
2018-11-23T06:33:46.329Z,37.40
2018-11-23T06:36:14.689Z,36.87
2018-11-23T06:38:43.091Z,35.47
2018-11-23T06:41:12.006Z,37.60
2018-11-23T06:43:40.490Z,33.63
2018-11-23T06:46:10.405Z,36.20
2018-11-23T06:48:38.793Z,35.93
2018-11-23T06:51:07.383Z,38.40
2018-11-23T06:53:35.762Z,30.87
2018-11-23T06:56:04.720Z,37.60
2018-11-23T06:58:33.118Z,39.40
2018-11-23T07:01:01.482Z,41.90
2018-11-23T07:03:29.875Z,40.00
2018-11-23T07:05:58.776Z,39.73
2018-11-23T07:08:27.183Z,39.63
2018-11-23T07:10:59.256Z,39.10
2018-11-23T07:13:28.470Z,36.60
2018-11-23T07:15:56.847Z,40.23
2018-11-23T07:18:25.234Z,38.10
2018-11-23T07:20:53.891Z,40.23
2018-11-23T07:23:22.063Z,41.60
2018-11-23T07:25:50.429Z,42.53
2018-11-23T07:28:18.944Z,40.90
2018-11-23T07:30:47.314Z,39.77
2018-11-23T07:33:15.712Z,40.67
2018-11-23T07:35:44.087Z,36.37
2018-11-23T07:38:12.495Z,38.60
2018-11-23T07:40:53.245Z,40.73
2018-11-23T07:43:21.775Z,38.92
2018-11-23T07:45:50.275Z,38.60
2018-11-23T07:48:18.775Z,41.05
2018-11-23T07:50:47.155Z,41.63
2018-11-23T07:53:15.530Z,37.47
2018-11-23T07:55:43.949Z,41.90
2018-11-23T07:58:12.478Z,41.80
2018-11-23T08:00:40.948Z,42.33
2018-11-23T08:03:09.326Z,40.47
2018-11-23T08:05:37.729Z,40.70
2018-11-23T08:08:06.555Z,42.47
2018-11-23T08:10:34.206Z,41.48
2018-11-23T08:13:02.582Z,41.60
2018-11-23T08:15:31.058Z,38.60
2018-11-23T08:17:59.426Z,39.47
2018-11-23T08:20:27.837Z,41.97
2018-11-23T08:22:56.362Z,44.07
2018-11-23T08:25:25.798Z,40.77
2018-11-23T08:27:55.382Z,41.10
2018-11-23T08:30:25.227Z,41.00
2018-11-23T08:32:53.787Z,43.27
2018-11-23T08:35:22.263Z,39.33
2018-11-23T08:37:50.634Z,41.30
2018-11-23T08:40:21.042Z,40.00
2018-11-23T08:42:50.203Z,41.17
2018-11-23T08:45:20.455Z,40.53
2018-11-23T08:47:48.868Z,42.63
2018-11-23T08:50:20.462Z,40.78
2018-11-23T08:52:48.862Z,40.67
2018-11-23T08:55:18.041Z,38.35
2018-11-23T08:57:46.514Z,35.90
2018-11-23T09:00:18.187Z,41.20
2018-11-23T09:02:47.883Z,40.60
2018-11-23T09:05:16.845Z,39.13
2018-11-23T09:07:46.283Z,36.50
2018-11-23T09:10:16.721Z,43.00
2018-11-23T09:12:46.759Z,38.10
2018-11-23T09:15:15.685Z,39.10
2018-11-23T09:17:44.819Z,36.07
2018-11-23T09:20:13.898Z,39.07
2018-11-23T09:22:42.304Z,38.97
2018-11-23T09:25:13.627Z,37.50
2018-11-23T09:27:42.087Z,36.63
2018-11-23T09:30:12.726Z,36.40
2018-11-23T09:32:41.226Z,37.90
2018-11-23T09:35:09.694Z,34.90
2018-11-23T09:37:38.725Z,39.10
2018-11-23T09:40:09.506Z,36.13
2018-11-23T09:42:38.432Z,34.97
2018-11-23T09:45:08.866Z,35.83
2018-11-23T09:47:37.345Z,33.80
2018-11-23T09:50:08.103Z,36.80
2018-11-23T09:52:36.516Z,33.93
2018-11-23T09:55:05.561Z,38.03
2018-11-23T09:57:33.938Z,32.70
2018-11-23T10:00:05.121Z,35.36
2018-11-23T10:02:33.535Z,35.30
2018-11-23T10:05:01.923Z,31.90
2018-11-23T10:07:30.303Z,34.33
2018-11-23T10:09:58.707Z,34.87
2018-11-23T10:12:27.239Z,35.83
2018-11-23T10:14:55.631Z,30.27
2018-11-23T10:17:23.996Z,33.30
2018-11-23T10:19:58.045Z,29.10
2018-11-23T10:22:20.813Z,34.17
2018-11-23T10:24:49.202Z,35.27
2018-11-23T10:27:17.588Z,33.07
2018-11-23T10:29:45.965Z,32.80
2018-11-23T10:32:14.452Z,31.40
2018-11-23T10:34:42.880Z,33.70
2018-11-23T10:37:11.332Z,29.12
2018-11-23T10:39:39.734Z,31.87
2018-11-23T10:42:08.107Z,35.13
2018-11-23T10:44:36.494Z,33.90
2018-11-23T10:47:05.127Z,31.07
2018-11-23T10:49:33.519Z,31.90
2018-11-23T10:52:01.899Z,33.03
2018-11-23T10:54:30.326Z,32.53
2018-11-23T10:56:58.725Z,34.90
2018-11-23T10:59:27.122Z,32.53
2018-11-23T11:02:00.997Z,33.75
2018-11-23T11:04:34.806Z,34.30
2018-11-23T11:07:06.662Z,32.73
2018-11-23T11:09:35.247Z,33.53
2018-11-23T11:12:03.640Z,35.63
2018-11-23T11:14:32.032Z,33.53
2018-11-23T11:17:00.421Z,32.03
2018-11-23T11:19:28.862Z,34.98
2018-11-23T11:21:57.273Z,33.63
2018-11-23T11:24:25.633Z,33.57
2018-11-23T11:26:54.026Z,36.30
2018-11-23T11:29:22.388Z,37.37
2018-11-23T11:31:50.793Z,33.70
2018-11-23T11:34:19.929Z,34.65
2018-11-23T11:36:48.325Z,35.50
2018-11-23T11:39:18.181Z,29.70
2018-11-23T11:41:45.151Z,39.27
2018-11-23T11:44:13.519Z,35.30
2018-11-23T11:46:41.905Z,36.27
2018-11-23T11:49:10.302Z,38.43
2018-11-23T11:51:38.704Z,39.27
2018-11-23T11:54:07.154Z,37.67
2018-11-23T11:56:35.559Z,37.47
2018-11-23T11:59:03.998Z,40.50
2018-11-23T12:01:32.412Z,46.00
2018-11-23T12:04:00.785Z,36.00
2018-11-23T12:06:29.250Z,40.40
2018-11-23T12:08:57.652Z,35.80
2018-11-23T12:11:26.026Z,37.63
2018-11-23T12:13:54.553Z,38.80
2018-11-23T12:16:22.951Z,38.40
2018-11-23T12:18:51.426Z,40.50
2018-11-23T12:21:19.835Z,41.00
2018-11-23T12:23:48.272Z,43.70
2018-11-23T12:26:16.649Z,40.03
2018-11-23T12:28:45.056Z,41.50
2018-11-23T12:31:13.518Z,43.33
2018-11-23T12:33:42.001Z,42.23
2018-11-23T12:36:10.374Z,43.13
2018-11-23T12:38:43.017Z,40.20
2018-11-23T12:41:07.192Z,40.63
2018-11-23T12:43:35.600Z,41.80
2018-11-23T12:46:04.020Z,42.37
2018-11-23T12:48:32.411Z,41.13
2018-11-23T12:51:00.874Z,44.60
2018-11-23T12:53:29.274Z,42.27
2018-11-23T12:55:57.658Z,40.83
2018-11-23T12:58:26.089Z,40.00
2018-11-23T13:00:54.453Z,43.63
2018-11-23T13:03:22.850Z,42.33
2018-11-23T13:05:51.246Z,42.27
2018-11-23T13:08:19.622Z,39.97
2018-11-23T13:10:48.094Z,42.20
2018-11-23T13:13:16.465Z,41.90
2018-11-23T13:15:44.876Z,45.50
2018-11-23T13:18:13.890Z,43.57
2018-11-23T13:20:42.308Z,44.30
2018-11-23T13:23:11.401Z,42.70
2018-11-23T13:25:39.789Z,43.97
2018-11-23T13:28:08.199Z,44.10
2018-11-23T13:30:37.228Z,40.23
2018-11-23T13:33:05.837Z,45.63
2018-11-23T13:35:34.229Z,45.33
2018-11-23T13:38:02.602Z,41.90
2018-11-23T13:40:31.360Z,43.37
2018-11-23T13:43:00.566Z,44.63
2018-11-23T13:45:31.720Z,47.67
2018-11-23T13:48:00.111Z,43.50
2018-11-23T13:50:28.972Z,41.97
2018-11-23T13:52:59.775Z,45.40
2018-11-23T13:55:28.191Z,45.20
2018-11-23T13:57:56.563Z,44.53
2018-11-23T14:00:26.380Z,42.87
2018-11-23T14:02:54.760Z,43.03
2018-11-23T14:05:24.475Z,45.03
2018-11-23T14:07:54.158Z,44.53
2018-11-23T14:10:23.796Z,45.43
2018-11-23T14:12:52.322Z,45.57
2018-11-23T14:15:24.917Z,46.67
2018-11-23T14:17:54.291Z,44.30
2018-11-23T14:20:23.540Z,44.40
2018-11-23T14:22:51.941Z,42.10
2018-11-23T14:25:28.068Z,41.83
2018-11-23T14:27:56.827Z,46.33
2018-11-23T14:30:26.671Z,43.70
2018-11-23T14:32:55.396Z,41.90
2018-11-23T14:35:25.278Z,45.27
2018-11-23T14:37:54.502Z,43.60
2018-11-23T14:40:22.904Z,44.87
2018-11-23T14:42:51.835Z,47.37
2018-11-23T14:45:22.719Z,45.60
2018-11-23T14:47:51.812Z,46.50
2018-11-23T14:50:23.639Z,47.13
2018-11-23T14:52:53.084Z,47.30
2018-11-23T14:55:21.748Z,45.07
2018-11-23T14:57:50.155Z,43.97
2018-11-23T15:00:30.032Z,41.70
2018-11-23T15:02:59.675Z,43.90
2018-11-23T15:05:28.067Z,43.77
2018-11-23T15:07:56.637Z,44.40
2018-11-23T15:10:26.365Z,47.23
2018-11-23T15:12:56.062Z,44.00
2018-11-23T15:15:26.008Z,44.10
2018-11-23T15:17:54.970Z,43.73
2018-11-23T15:20:25.109Z,43.50
2018-11-23T15:22:58.019Z,45.50
2018-11-23T15:25:26.421Z,46.53
2018-11-23T15:27:54.935Z,47.70
2018-11-23T15:30:25.087Z,44.30
2018-11-23T15:32:53.534Z,44.97
2018-11-23T15:35:21.917Z,48.13
2018-11-23T15:37:50.298Z,44.30
2018-11-23T15:40:21.392Z,46.47
2018-11-23T15:42:50.655Z,44.80
2018-11-23T15:45:20.382Z,43.53
2018-11-23T15:47:48.740Z,45.77
2018-11-23T15:50:18.576Z,46.53
2018-11-23T15:52:47.433Z,48.60
2018-11-23T15:55:18.635Z,44.50
2018-11-23T15:57:47.783Z,40.70
2018-11-23T16:00:21.518Z,51.33
2018-11-23T16:02:50.278Z,42.07
2018-11-23T16:05:18.998Z,43.97
2018-11-23T16:07:47.909Z,44.80
2018-11-23T16:10:22.805Z,49.67
2018-11-23T16:12:52.503Z,43.37
2018-11-23T16:15:21.638Z,43.30
2018-11-23T16:17:50.494Z,46.00
2018-11-23T16:20:20.512Z,46.33
2018-11-23T16:22:50.254Z,46.23
2018-11-23T16:25:18.797Z,48.20
2018-11-23T16:27:48.559Z,47.47
2018-11-23T16:30:20.039Z,53.07
2018-11-23T16:32:49.678Z,48.23
2018-11-23T16:35:19.500Z,47.37
2018-11-23T16:37:48.017Z,48.90
2018-11-23T16:40:18.806Z,49.70
2018-11-23T16:42:47.215Z,49.93
2018-11-23T16:45:18.915Z,48.40
2018-11-23T16:47:47.768Z,47.13
2018-11-23T16:50:16.163Z,48.93
2018-11-23T16:52:45.758Z,50.10
2018-11-23T16:55:15.181Z,52.03
2018-11-23T16:57:44.762Z,52.70
2018-11-23T17:00:17.725Z,51.47
2018-11-23T17:02:46.127Z,51.30
2018-11-23T17:05:15.808Z,50.93
2018-11-23T17:07:44.204Z,48.67
2018-11-23T17:10:13.793Z,52.73
2018-11-23T17:12:42.613Z,50.67
2018-11-23T17:15:13.045Z,47.10
2018-11-23T17:17:41.537Z,53.80
2018-11-23T17:20:14.560Z,52.83
2018-11-23T17:22:44.018Z,51.83
2018-11-23T17:25:13.919Z,45.70
2018-11-23T17:27:42.531Z,53.63
2018-11-23T17:30:12.758Z,84.37
2018-11-23T17:32:41.228Z,49.90
2018-11-23T17:35:10.390Z,51.70
2018-11-23T17:37:39.398Z,55.30
2018-11-23T17:40:09.512Z,50.60
2018-11-23T17:42:37.880Z,52.53
2018-11-23T17:45:25.443Z,53.93
2018-11-23T17:47:54.491Z,51.23
2018-11-23T17:50:24.344Z,56.33
2018-11-23T17:52:53.046Z,51.47
2018-11-23T17:55:21.454Z,54.23
2018-11-23T17:57:50.451Z,53.60
2018-11-23T18:00:21.063Z,54.83
2018-11-23T18:02:50.033Z,58.37
2018-11-23T18:05:19.143Z,51.90
2018-11-23T18:07:47.870Z,53.00
2018-11-23T18:10:18.769Z,53.80
2018-11-23T18:12:47.430Z,52.67
2018-11-23T18:15:18.915Z,56.27
2018-11-23T18:17:47.886Z,56.07
2018-11-23T18:20:17.664Z,53.73
2018-11-23T18:22:46.469Z,60.07
2018-11-23T18:25:16.409Z,59.23
2018-11-23T18:27:45.019Z,56.47
2018-11-23T18:30:13.623Z,57.87
2018-11-23T18:32:42.078Z,56.47
2018-11-23T18:35:12.766Z,58.20
2018-11-23T18:37:41.230Z,53.60
2018-11-23T18:40:11.768Z,54.90
2018-11-23T18:42:40.157Z,59.67
2018-11-23T18:45:12.829Z,60.03
2018-11-23T18:47:43.011Z,54.33
2018-11-23T18:50:13.582Z,54.03
2018-11-23T18:52:41.993Z,62.37
2018-11-23T18:55:17.936Z,54.07
2018-11-23T18:57:39.837Z,61.07
2018-11-23T19:00:12.513Z,56.97
2018-11-23T19:02:41.207Z,58.90
2018-11-23T19:05:16.809Z,59.73
2018-11-23T19:07:45.202Z,57.60
2018-11-23T19:10:14.350Z,58.53
2018-11-23T19:12:42.787Z,63.13
2018-11-23T19:15:14.228Z,55.77
2018-11-23T19:17:42.732Z,60.33
2018-11-23T19:20:21.624Z,60.97
2018-11-23T19:22:52.342Z,56.93
2018-11-23T19:25:20.726Z,57.87
2018-11-23T19:27:49.126Z,58.17
2018-11-23T19:30:20.907Z,58.30
2018-11-23T19:32:48.222Z,55.47
2018-11-23T19:35:16.591Z,53.67
2018-11-23T19:37:44.997Z,56.53
2018-11-23T19:40:15.226Z,55.17
2018-11-23T19:42:44.164Z,55.90
2018-11-23T19:45:15.481Z,54.50
2018-11-23T19:47:43.903Z,57.30
2018-11-23T19:50:14.190Z,57.37
2018-11-23T19:52:42.583Z,60.93
2018-11-23T19:55:11.990Z,52.90
2018-11-23T19:57:40.432Z,55.70
2018-11-23T20:00:20.487Z,57.07
2018-11-23T20:02:48.860Z,53.37
2018-11-23T20:05:17.249Z,51.20
2018-11-23T20:07:46.413Z,51.80
2018-11-23T20:10:16.206Z,54.03
2018-11-23T20:12:45.163Z,54.43
2018-11-23T20:15:17.457Z,54.37
2018-11-23T20:17:45.875Z,56.10
2018-11-23T20:20:15.782Z,54.47
2018-11-23T20:22:44.397Z,52.83
2018-11-23T20:25:13.916Z,53.60
2018-11-23T20:27:42.320Z,53.87
2018-11-23T20:30:13.734Z,52.50
2018-11-23T20:32:42.133Z,53.47
2018-11-23T20:35:14.086Z,54.30
2018-11-23T20:37:42.486Z,52.50
2018-11-23T20:40:18.138Z,55.77
2018-11-23T20:42:46.552Z,55.27
2018-11-23T20:45:14.958Z,53.57
2018-11-23T20:47:43.354Z,55.00
2018-11-23T20:50:13.905Z,47.60
2018-11-23T20:52:42.306Z,56.20
2018-11-23T20:55:12.902Z,53.87
2018-11-23T20:57:41.297Z,53.40
2018-11-23T21:00:12.218Z,55.63
2018-11-23T21:02:40.733Z,53.57
2018-11-23T21:05:10.314Z,56.90
2018-11-23T21:07:38.772Z,53.23
2018-11-23T21:10:19.638Z,54.53
2018-11-23T21:12:40.004Z,54.40
2018-11-23T21:15:15.733Z,54.00
2018-11-23T21:17:44.141Z,54.53
2018-11-23T21:20:12.765Z,52.60
2018-11-23T21:22:41.152Z,53.67
2018-11-23T21:25:10.370Z,54.17
2018-11-23T21:27:38.741Z,56.07
2018-11-23T21:30:17.907Z,55.50
2018-11-23T21:32:46.289Z,53.60
2018-11-23T21:35:14.726Z,52.80
2018-11-23T21:37:43.115Z,54.50
2018-11-23T21:40:16.399Z,51.93
2018-11-23T21:42:44.844Z,55.60
2018-11-23T21:45:16.357Z,56.07
2018-11-23T21:47:44.778Z,50.77
2018-11-23T21:50:24.600Z,52.20
2018-11-23T21:52:45.559Z,51.23
2018-11-23T21:55:15.927Z,55.27
2018-11-23T21:57:44.305Z,53.90
2018-11-23T22:00:14.621Z,54.50
2018-11-23T22:02:43.032Z,53.37
2018-11-23T22:05:11.605Z,54.17
2018-11-23T22:07:40.006Z,55.70
2018-11-23T22:10:18.409Z,54.63
2018-11-23T22:12:46.783Z,53.33
2018-11-23T22:15:19.173Z,54.00
2018-11-23T22:17:47.993Z,56.87
2018-11-23T22:20:17.543Z,55.47
2018-11-23T22:22:45.920Z,53.00
2018-11-23T22:25:16.358Z,55.70
2018-11-23T22:27:44.923Z,54.67
2018-11-23T22:30:23.525Z,53.07
2018-11-23T22:32:51.904Z,51.50
2018-11-23T22:35:20.317Z,52.80
2018-11-23T22:37:48.682Z,54.67
2018-11-23T22:40:18.272Z,50.43
2018-11-23T22:42:47.815Z,55.30
2018-11-23T22:45:16.761Z,55.30
2018-11-23T22:47:45.160Z,53.20
2018-11-23T22:50:16.693Z,52.80
2018-11-23T22:52:45.082Z,51.70
2018-11-23T22:55:14.296Z,52.13
2018-11-23T22:57:43.896Z,54.83
2018-11-23T23:03:02.900Z,49.90
2018-11-23T23:05:31.265Z,51.50
2018-11-23T23:07:59.734Z,50.30
2018-11-23T23:10:28.104Z,50.90
2018-11-23T23:12:56.495Z,51.77
2018-11-23T23:15:24.862Z,52.23
2018-11-23T23:17:53.246Z,51.47
2018-11-23T23:20:22.771Z,53.60
2018-11-23T23:22:51.180Z,52.60
2018-11-23T23:25:19.545Z,52.57
2018-11-23T23:27:47.942Z,50.87
2018-11-23T23:30:17.295Z,52.10
2018-11-23T23:32:46.440Z,50.23
2018-11-23T23:35:15.598Z,52.27
2018-11-23T23:37:43.986Z,51.83
2018-11-23T23:40:16.370Z,51.20
2018-11-23T23:42:44.790Z,54.30
2018-11-23T23:45:16.918Z,51.90
2018-11-23T23:47:45.310Z,52.93
2018-11-23T23:50:18.796Z,50.17
2018-11-23T23:52:47.158Z,54.37
2018-11-23T23:55:15.543Z,52.67
2018-11-23T23:57:44.941Z,50.47
